sensor_id;sensor_type;location;lat;lon;timestamp;P1;durP1;ratioP1;P2;durP2;ratioP2
47455;SDS011;33202;48.512;-2.780;2023-06-22T00:01:26;6.13;;;3.28;;
47455;SDS011;33202;48.512;-2.780;2023-06-22T00:03:52;6.90;;;3.78;;
47455;SDS011;33202;48.512;-2.780;2023-06-22T00:06:18;5.80;;;3.60;;
47455;SDS011;33202;48.512;-2.780;2023-06-22T00:08:45;8.30;;;3.80;;
47455;SDS011;33202;48.512;-2.780;2023-06-22T00:11:11;5.53;;;3.67;;
47455;SDS011;33202;48.512;-2.780;2023-06-22T00:13:37;6.13;;;3.70;;
47455;SDS011;33202;48.512;-2.780;2023-06-22T00:16:03;4.73;;;3.50;;
47455;SDS011;33202;48.512;-2.780;2023-06-22T00:18:30;4.53;;;3.65;;
47455;SDS011;33202;48.512;-2.780;2023-06-22T00:20:57;7.35;;;4.38;;
47455;SDS011;33202;48.512;-2.780;2023-06-22T00:23:23;5.70;;;4.20;;
47455;SDS011;33202;48.512;-2.780;2023-06-22T00:25:49;6.37;;;4.93;;
47455;SDS011;33202;48.512;-2.780;2023-06-22T00:28:15;5.80;;;4.10;;
47455;SDS011;33202;48.512;-2.780;2023-06-22T00:30:41;6.97;;;4.80;;
47455;SDS011;33202;48.512;-2.780;2023-06-22T00:33:07;7.55;;;3.95;;
47455;SDS011;33202;48.512;-2.780;2023-06-22T00:35:33;6.78;;;4.40;;
47455;SDS011;33202;48.512;-2.780;2023-06-22T00:38:00;5.75;;;3.97;;
47455;SDS011;33202;48.512;-2.780;2023-06-22T00:40:28;5.68;;;4.15;;
47455;SDS011;33202;48.512;-2.780;2023-06-22T00:42:54;5.30;;;4.10;;
47455;SDS011;33202;48.512;-2.780;2023-06-22T00:45:21;8.18;;;4.20;;
47455;SDS011;33202;48.512;-2.780;2023-06-22T00:50:15;5.97;;;4.30;;
47455;SDS011;33202;48.512;-2.780;2023-06-22T00:52:45;8.30;;;4.45;;
47455;SDS011;33202;48.512;-2.780;2023-06-22T00:55:12;5.73;;;4.57;;
47455;SDS011;33202;48.512;-2.780;2023-06-22T00:57:39;4.88;;;4.13;;
47455;SDS011;33202;48.512;-2.780;2023-06-22T01:00:05;8.40;;;5.18;;
47455;SDS011;33202;48.512;-2.780;2023-06-22T01:02:33;8.18;;;4.88;;
47455;SDS011;33202;48.512;-2.780;2023-06-22T01:04:59;5.50;;;4.30;;
47455;SDS011;33202;48.512;-2.780;2023-06-22T01:09:57;6.63;;;4.45;;
47455;SDS011;33202;48.512;-2.780;2023-06-22T01:12:25;6.95;;;4.82;;
47455;SDS011;33202;48.512;-2.780;2023-06-22T01:14:57;7.53;;;5.43;;
47455;SDS011;33202;48.512;-2.780;2023-06-22T01:17:27;10.88;;;6.18;;
47455;SDS011;33202;48.512;-2.780;2023-06-22T01:19:54;8.23;;;5.03;;
47455;SDS011;33202;48.512;-2.780;2023-06-22T01:22:22;8.38;;;5.13;;
47455;SDS011;33202;48.512;-2.780;2023-06-22T01:29:50;9.15;;;5.43;;
47455;SDS011;33202;48.512;-2.780;2023-06-22T01:32:18;9.80;;;5.75;;
47455;SDS011;33202;48.512;-2.780;2023-06-22T01:34:44;7.30;;;5.18;;
47455;SDS011;33202;48.512;-2.780;2023-06-22T01:39:37;10.15;;;6.53;;
47455;SDS011;33202;48.512;-2.780;2023-06-22T01:42:04;10.55;;;6.13;;
47455;SDS011;33202;48.512;-2.780;2023-06-22T01:44:30;9.17;;;7.00;;
47455;SDS011;33202;48.512;-2.780;2023-06-22T01:46:56;11.45;;;6.60;;
47455;SDS011;33202;48.512;-2.780;2023-06-22T01:49:22;11.38;;;7.75;;
47455;SDS011;33202;48.512;-2.780;2023-06-22T01:51:48;12.02;;;7.68;;
47455;SDS011;33202;48.512;-2.780;2023-06-22T01:54:14;9.63;;;7.32;;
47455;SDS011;33202;48.512;-2.780;2023-06-22T01:56:40;13.00;;;8.43;;
47455;SDS011;33202;48.512;-2.780;2023-06-22T01:59:12;10.30;;;7.10;;
47455;SDS011;33202;48.512;-2.780;2023-06-22T02:01:43;13.77;;;7.38;;
47455;SDS011;33202;48.512;-2.780;2023-06-22T02:04:11;12.60;;;7.40;;
47455;SDS011;33202;48.512;-2.780;2023-06-22T02:06:39;11.20;;;7.45;;
47455;SDS011;33202;48.512;-2.780;2023-06-22T02:09:07;9.75;;;7.00;;
47455;SDS011;33202;48.512;-2.780;2023-06-22T02:11:34;11.73;;;7.18;;
47455;SDS011;33202;48.512;-2.780;2023-06-22T02:14:00;15.27;;;8.30;;
47455;SDS011;33202;48.512;-2.780;2023-06-22T02:16:26;15.63;;;8.02;;
47455;SDS011;33202;48.512;-2.780;2023-06-22T02:18:56;10.60;;;7.60;;
47455;SDS011;33202;48.512;-2.780;2023-06-22T02:21:28;12.20;;;8.20;;
47455;SDS011;33202;48.512;-2.780;2023-06-22T02:23:54;11.00;;;8.45;;
47455;SDS011;33202;48.512;-2.780;2023-06-22T02:26:20;16.45;;;9.30;;
47455;SDS011;33202;48.512;-2.780;2023-06-22T02:28:46;14.52;;;8.65;;
47455;SDS011;33202;48.512;-2.780;2023-06-22T02:31:12;12.65;;;9.32;;
47455;SDS011;33202;48.512;-2.780;2023-06-22T02:33:38;14.30;;;9.30;;
47455;SDS011;33202;48.512;-2.780;2023-06-22T02:36:04;16.00;;;9.82;;
47455;SDS011;33202;48.512;-2.780;2023-06-22T02:38:33;14.25;;;10.55;;
47455;SDS011;33202;48.512;-2.780;2023-06-22T02:41:01;19.02;;;11.43;;
47455;SDS011;33202;48.512;-2.780;2023-06-22T02:43:27;17.80;;;10.43;;
47455;SDS011;33202;48.512;-2.780;2023-06-22T02:45:53;15.52;;;9.90;;
47455;SDS011;33202;48.512;-2.780;2023-06-22T02:48:19;13.45;;;9.18;;
47455;SDS011;33202;48.512;-2.780;2023-06-22T02:50:45;17.55;;;10.18;;
47455;SDS011;33202;48.512;-2.780;2023-06-22T02:53:11;16.52;;;10.32;;
47455;SDS011;33202;48.512;-2.780;2023-06-22T02:55:37;15.82;;;10.02;;
47455;SDS011;33202;48.512;-2.780;2023-06-22T02:58:04;16.60;;;10.60;;
47455;SDS011;33202;48.512;-2.780;2023-06-22T03:00:31;18.70;;;10.98;;
47455;SDS011;33202;48.512;-2.780;2023-06-22T03:02:57;17.23;;;11.50;;
47455;SDS011;33202;48.512;-2.780;2023-06-22T03:05:23;16.98;;;10.40;;
47455;SDS011;33202;48.512;-2.780;2023-06-22T03:07:49;13.68;;;9.65;;
47455;SDS011;33202;48.512;-2.780;2023-06-22T03:10:16;16.63;;;11.65;;
47455;SDS011;33202;48.512;-2.780;2023-06-22T03:12:42;20.02;;;12.30;;
47455;SDS011;33202;48.512;-2.780;2023-06-22T03:15:09;19.90;;;12.07;;
47455;SDS011;33202;48.512;-2.780;2023-06-22T03:20:02;18.30;;;11.57;;
47455;SDS011;33202;48.512;-2.780;2023-06-22T03:22:36;18.27;;;11.05;;
47455;SDS011;33202;48.512;-2.780;2023-06-22T03:25:02;14.88;;;10.43;;
47455;SDS011;33202;48.512;-2.780;2023-06-22T03:27:28;15.13;;;10.15;;
47455;SDS011;33202;48.512;-2.780;2023-06-22T03:29:54;16.17;;;11.38;;
47455;SDS011;33202;48.512;-2.780;2023-06-22T03:32:20;18.55;;;11.13;;
47455;SDS011;33202;48.512;-2.780;2023-06-22T03:34:46;15.90;;;10.35;;
47455;SDS011;33202;48.512;-2.780;2023-06-22T03:37:14;16.52;;;10.02;;
47455;SDS011;33202;48.512;-2.780;2023-06-22T03:39:41;22.17;;;11.75;;
47455;SDS011;33202;48.512;-2.780;2023-06-22T03:42:07;18.40;;;10.98;;
47455;SDS011;33202;48.512;-2.780;2023-06-22T03:44:33;18.63;;;11.20;;
47455;SDS011;33202;48.512;-2.780;2023-06-22T03:47:01;17.52;;;11.13;;
47455;SDS011;33202;48.512;-2.780;2023-06-22T03:49:27;16.80;;;10.95;;
47455;SDS011;33202;48.512;-2.780;2023-06-22T03:51:53;15.90;;;10.63;;
47455;SDS011;33202;48.512;-2.780;2023-06-22T03:54:19;15.70;;;10.30;;
47455;SDS011;33202;48.512;-2.780;2023-06-22T03:56:45;17.20;;;10.73;;
47455;SDS011;33202;48.512;-2.780;2023-06-22T03:59:11;18.35;;;9.85;;
47455;SDS011;33202;48.512;-2.780;2023-06-22T04:01:37;14.95;;;10.40;;
47455;SDS011;33202;48.512;-2.780;2023-06-22T04:04:03;14.48;;;9.85;;
47455;SDS011;33202;48.512;-2.780;2023-06-22T04:06:29;15.30;;;9.65;;
47455;SDS011;33202;48.512;-2.780;2023-06-22T04:08:55;18.15;;;9.90;;
47455;SDS011;33202;48.512;-2.780;2023-06-22T04:11:21;14.68;;;9.88;;
47455;SDS011;33202;48.512;-2.780;2023-06-22T04:13:47;16.73;;;11.13;;
47455;SDS011;33202;48.512;-2.780;2023-06-22T04:16:14;15.38;;;10.38;;
47455;SDS011;33202;48.512;-2.780;2023-06-22T04:18:40;15.93;;;11.15;;
47455;SDS011;33202;48.512;-2.780;2023-06-22T04:21:07;17.08;;;10.60;;
47455;SDS011;33202;48.512;-2.780;2023-06-22T04:23:33;14.32;;;10.25;;
47455;SDS011;33202;48.512;-2.780;2023-06-22T04:25:59;13.82;;;9.18;;
47455;SDS011;33202;48.512;-2.780;2023-06-22T04:28:25;15.48;;;9.57;;
47455;SDS011;33202;48.512;-2.780;2023-06-22T04:30:51;12.68;;;9.20;;
47455;SDS011;33202;48.512;-2.780;2023-06-22T04:33:17;14.10;;;9.65;;
47455;SDS011;33202;48.512;-2.780;2023-06-22T04:35:46;14.48;;;10.43;;
47455;SDS011;33202;48.512;-2.780;2023-06-22T04:38:12;13.13;;;9.45;;
47455;SDS011;33202;48.512;-2.780;2023-06-22T04:40:39;13.85;;;9.32;;
47455;SDS011;33202;48.512;-2.780;2023-06-22T04:43:05;14.23;;;10.37;;
47455;SDS011;33202;48.512;-2.780;2023-06-22T04:45:32;13.93;;;10.23;;
47455;SDS011;33202;48.512;-2.780;2023-06-22T04:47:58;13.68;;;9.73;;
47455;SDS011;33202;48.512;-2.780;2023-06-22T04:50:24;14.57;;;10.30;;
47455;SDS011;33202;48.512;-2.780;2023-06-22T04:52:50;13.90;;;9.45;;
47455;SDS011;33202;48.512;-2.780;2023-06-22T04:55:16;13.23;;;9.68;;
47455;SDS011;33202;48.512;-2.780;2023-06-22T04:57:48;15.35;;;9.63;;
47455;SDS011;33202;48.512;-2.780;2023-06-22T05:00:18;15.75;;;10.27;;
47455;SDS011;33202;48.512;-2.780;2023-06-22T05:02:44;12.75;;;9.23;;
47455;SDS011;33202;48.512;-2.780;2023-06-22T05:05:11;14.27;;;9.20;;
47455;SDS011;33202;48.512;-2.780;2023-06-22T05:07:39;13.15;;;8.88;;
47455;SDS011;33202;48.512;-2.780;2023-06-22T05:10:08;12.43;;;8.75;;
47455;SDS011;33202;48.512;-2.780;2023-06-22T05:12:34;15.95;;;9.77;;
47455;SDS011;33202;48.512;-2.780;2023-06-22T05:15:00;14.60;;;8.68;;
47455;SDS011;33202;48.512;-2.780;2023-06-22T05:17:26;11.15;;;8.82;;
47455;SDS011;33202;48.512;-2.780;2023-06-22T05:19:53;13.90;;;9.67;;
47455;SDS011;33202;48.512;-2.780;2023-06-22T05:22:19;16.15;;;9.32;;
47455;SDS011;33202;48.512;-2.780;2023-06-22T05:24:46;15.13;;;9.77;;
47455;SDS011;33202;48.512;-2.780;2023-06-22T05:27:12;11.90;;;8.27;;
47455;SDS011;33202;48.512;-2.780;2023-06-22T05:29:38;11.95;;;8.85;;
47455;SDS011;33202;48.512;-2.780;2023-06-22T05:32:04;12.97;;;8.83;;
47455;SDS011;33202;48.512;-2.780;2023-06-22T05:34:31;9.98;;;7.88;;
47455;SDS011;33202;48.512;-2.780;2023-06-22T05:36:57;14.15;;;9.70;;
47455;SDS011;33202;48.512;-2.780;2023-06-22T05:39:26;13.35;;;9.48;;
47455;SDS011;33202;48.512;-2.780;2023-06-22T05:41:52;12.60;;;9.05;;
47455;SDS011;33202;48.512;-2.780;2023-06-22T05:44:18;12.20;;;9.75;;
47455;SDS011;33202;48.512;-2.780;2023-06-22T05:46:44;16.77;;;9.68;;
47455;SDS011;33202;48.512;-2.780;2023-06-22T05:49:13;14.13;;;9.40;;
47455;SDS011;33202;48.512;-2.780;2023-06-22T05:51:40;14.27;;;9.67;;
47455;SDS011;33202;48.512;-2.780;2023-06-22T05:54:06;12.07;;;9.33;;
47455;SDS011;33202;48.512;-2.780;2023-06-22T05:56:33;12.63;;;8.80;;
47455;SDS011;33202;48.512;-2.780;2023-06-22T05:58:59;13.70;;;8.80;;
47455;SDS011;33202;48.512;-2.780;2023-06-22T06:01:25;11.35;;;8.55;;
47455;SDS011;33202;48.512;-2.780;2023-06-22T06:03:51;15.07;;;9.35;;
47455;SDS011;33202;48.512;-2.780;2023-06-22T06:06:18;13.48;;;10.00;;
47455;SDS011;33202;48.512;-2.780;2023-06-22T06:08:53;16.17;;;9.18;;
47455;SDS011;33202;48.512;-2.780;2023-06-22T06:11:19;13.50;;;8.65;;
47455;SDS011;33202;48.512;-2.780;2023-06-22T06:13:45;13.90;;;9.43;;
47455;SDS011;33202;48.512;-2.780;2023-06-22T06:16:11;11.75;;;8.70;;
47455;SDS011;33202;48.512;-2.780;2023-06-22T06:18:37;9.93;;;7.95;;
47455;SDS011;33202;48.512;-2.780;2023-06-22T06:21:03;13.32;;;9.15;;
47455;SDS011;33202;48.512;-2.780;2023-06-22T06:23:29;12.32;;;8.52;;
47455;SDS011;33202;48.512;-2.780;2023-06-22T06:25:55;12.25;;;8.73;;
47455;SDS011;33202;48.512;-2.780;2023-06-22T06:28:21;12.20;;;8.45;;
47455;SDS011;33202;48.512;-2.780;2023-06-22T06:30:47;12.35;;;9.18;;
47455;SDS011;33202;48.512;-2.780;2023-06-22T06:33:13;11.07;;;8.30;;
47455;SDS011;33202;48.512;-2.780;2023-06-22T06:35:39;11.55;;;9.10;;
47455;SDS011;33202;48.512;-2.780;2023-06-22T06:38:05;10.93;;;8.48;;
47455;SDS011;33202;48.512;-2.780;2023-06-22T06:40:31;12.98;;;9.45;;
47455;SDS011;33202;48.512;-2.780;2023-06-22T06:42:57;14.73;;;9.25;;
47455;SDS011;33202;48.512;-2.780;2023-06-22T06:45:23;12.80;;;9.77;;
47455;SDS011;33202;48.512;-2.780;2023-06-22T06:47:50;12.75;;;8.68;;
47455;SDS011;33202;48.512;-2.780;2023-06-22T06:50:17;13.55;;;9.32;;
47455;SDS011;33202;48.512;-2.780;2023-06-22T06:52:43;12.07;;;9.05;;
47455;SDS011;33202;48.512;-2.780;2023-06-22T06:55:09;11.07;;;8.03;;
47455;SDS011;33202;48.512;-2.780;2023-06-22T06:57:39;11.60;;;8.18;;
47455;SDS011;33202;48.512;-2.780;2023-06-22T07:00:06;11.77;;;8.23;;
47455;SDS011;33202;48.512;-2.780;2023-06-22T07:02:39;12.88;;;8.55;;
47455;SDS011;33202;48.512;-2.780;2023-06-22T07:05:06;10.50;;;7.70;;
47455;SDS011;33202;48.512;-2.780;2023-06-22T07:07:32;11.07;;;7.85;;
47455;SDS011;33202;48.512;-2.780;2023-06-22T07:09:58;11.10;;;7.03;;
47455;SDS011;33202;48.512;-2.780;2023-06-22T07:12:24;11.88;;;8.30;;
47455;SDS011;33202;48.512;-2.780;2023-06-22T07:14:51;9.68;;;7.47;;
47455;SDS011;33202;48.512;-2.780;2023-06-22T07:17:17;10.95;;;8.10;;
47455;SDS011;33202;48.512;-2.780;2023-06-22T07:19:43;14.00;;;7.60;;
47455;SDS011;33202;48.512;-2.780;2023-06-22T07:22:09;11.48;;;7.40;;
47455;SDS011;33202;48.512;-2.780;2023-06-22T07:24:35;10.50;;;6.70;;
47455;SDS011;33202;48.512;-2.780;2023-06-22T07:27:02;9.30;;;6.03;;
47455;SDS011;33202;48.512;-2.780;2023-06-22T07:29:30;10.40;;;6.50;;
47455;SDS011;33202;48.512;-2.780;2023-06-22T07:31:56;8.68;;;6.07;;
47455;SDS011;33202;48.512;-2.780;2023-06-22T07:34:22;8.45;;;5.68;;
47455;SDS011;33202;48.512;-2.780;2023-06-22T07:36:48;6.45;;;4.93;;
47455;SDS011;33202;48.512;-2.780;2023-06-22T07:39:14;7.90;;;5.68;;
47455;SDS011;33202;48.512;-2.780;2023-06-22T07:41:40;9.95;;;6.25;;
47455;SDS011;33202;48.512;-2.780;2023-06-22T07:44:06;7.10;;;5.55;;
47455;SDS011;33202;48.512;-2.780;2023-06-22T07:46:33;6.78;;;4.85;;
47455;SDS011;33202;48.512;-2.780;2023-06-22T07:48:59;7.53;;;5.07;;
47455;SDS011;33202;48.512;-2.780;2023-06-22T07:51:26;5.65;;;4.38;;
47455;SDS011;33202;48.512;-2.780;2023-06-22T07:53:52;5.03;;;4.18;;
47455;SDS011;33202;48.512;-2.780;2023-06-22T07:56:18;5.80;;;4.25;;
47455;SDS011;33202;48.512;-2.780;2023-06-22T07:58:45;6.30;;;4.35;;
47455;SDS011;33202;48.512;-2.780;2023-06-22T08:01:12;6.93;;;4.00;;
47455;SDS011;33202;48.512;-2.780;2023-06-22T08:03:38;7.37;;;4.47;;
47455;SDS011;33202;48.512;-2.780;2023-06-22T08:06:04;5.87;;;4.53;;
47455;SDS011;33202;48.512;-2.780;2023-06-22T08:08:31;6.40;;;4.40;;
47455;SDS011;33202;48.512;-2.780;2023-06-22T08:10:57;6.45;;;3.92;;
47455;SDS011;33202;48.512;-2.780;2023-06-22T08:13:23;7.30;;;4.90;;
47455;SDS011;33202;48.512;-2.780;2023-06-22T08:15:49;5.68;;;4.03;;
47455;SDS011;33202;48.512;-2.780;2023-06-22T08:18:15;9.13;;;4.53;;
47455;SDS011;33202;48.512;-2.780;2023-06-22T08:20:41;8.93;;;4.80;;
47455;SDS011;33202;48.512;-2.780;2023-06-22T08:23:07;6.20;;;5.05;;
47455;SDS011;33202;48.512;-2.780;2023-06-22T08:25:34;9.07;;;4.28;;
47455;SDS011;33202;48.512;-2.780;2023-06-22T08:28:00;7.65;;;4.20;;
47455;SDS011;33202;48.512;-2.780;2023-06-22T08:30:26;5.37;;;3.70;;
47455;SDS011;33202;48.512;-2.780;2023-06-22T08:32:52;6.75;;;4.75;;
47455;SDS011;33202;48.512;-2.780;2023-06-22T08:37:45;7.28;;;4.53;;
47455;SDS011;33202;48.512;-2.780;2023-06-22T08:40:16;7.75;;;4.63;;
47455;SDS011;33202;48.512;-2.780;2023-06-22T08:42:44;5.55;;;3.80;;
47455;SDS011;33202;48.512;-2.780;2023-06-22T08:45:10;5.38;;;4.00;;
47455;SDS011;33202;48.512;-2.780;2023-06-22T08:47:36;5.85;;;4.10;;
47455;SDS011;33202;48.512;-2.780;2023-06-22T08:50:02;6.18;;;3.85;;
47455;SDS011;33202;48.512;-2.780;2023-06-22T08:52:28;5.53;;;3.70;;
47455;SDS011;33202;48.512;-2.780;2023-06-22T08:54:55;4.95;;;4.00;;
47455;SDS011;33202;48.512;-2.780;2023-06-22T08:57:21;4.65;;;3.65;;
47455;SDS011;33202;48.512;-2.780;2023-06-22T08:59:47;5.88;;;3.83;;
47455;SDS011;33202;48.512;-2.780;2023-06-22T09:02:13;4.90;;;3.25;;
47455;SDS011;33202;48.512;-2.780;2023-06-22T09:04:39;4.82;;;3.50;;
47455;SDS011;33202;48.512;-2.780;2023-06-22T09:07:05;5.18;;;3.60;;
47455;SDS011;33202;48.512;-2.780;2023-06-22T09:09:31;4.80;;;3.13;;
47455;SDS011;33202;48.512;-2.780;2023-06-22T09:11:57;6.15;;;3.60;;
47455;SDS011;33202;48.512;-2.780;2023-06-22T09:14:23;4.10;;;3.40;;
47455;SDS011;33202;48.512;-2.780;2023-06-22T09:16:49;6.13;;;3.47;;
47455;SDS011;33202;48.512;-2.780;2023-06-22T09:19:15;6.78;;;3.83;;
47455;SDS011;33202;48.512;-2.780;2023-06-22T09:21:41;8.30;;;3.65;;
47455;SDS011;33202;48.512;-2.780;2023-06-22T09:24:07;5.40;;;3.70;;
47455;SDS011;33202;48.512;-2.780;2023-06-22T09:26:33;6.97;;;3.47;;
47455;SDS011;33202;48.512;-2.780;2023-06-22T09:28:59;5.43;;;3.15;;
47455;SDS011;33202;48.512;-2.780;2023-06-22T09:31:25;5.93;;;3.90;;
47455;SDS011;33202;48.512;-2.780;2023-06-22T09:33:52;6.57;;;3.90;;
47455;SDS011;33202;48.512;-2.780;2023-06-22T09:36:19;6.90;;;3.88;;
47455;SDS011;33202;48.512;-2.780;2023-06-22T09:38:45;5.00;;;3.85;;
47455;SDS011;33202;48.512;-2.780;2023-06-22T09:41:11;6.35;;;4.20;;
47455;SDS011;33202;48.512;-2.780;2023-06-22T09:43:37;4.28;;;3.65;;
47455;SDS011;33202;48.512;-2.780;2023-06-22T09:46:03;6.18;;;3.58;;
47455;SDS011;33202;48.512;-2.780;2023-06-22T09:48:29;5.38;;;3.50;;
47455;SDS011;33202;48.512;-2.780;2023-06-22T09:50:55;5.60;;;3.85;;
47455;SDS011;33202;48.512;-2.780;2023-06-22T09:53:21;5.93;;;3.97;;
47455;SDS011;33202;48.512;-2.780;2023-06-22T09:55:47;6.10;;;4.55;;
47455;SDS011;33202;48.512;-2.780;2023-06-22T09:58:14;5.93;;;3.95;;
47455;SDS011;33202;48.512;-2.780;2023-06-22T10:00:39;5.88;;;4.13;;
47455;SDS011;33202;48.512;-2.780;2023-06-22T10:03:06;5.90;;;4.85;;
47455;SDS011;33202;48.512;-2.780;2023-06-22T10:05:32;7.32;;;4.38;;
47455;SDS011;33202;48.512;-2.780;2023-06-22T10:07:58;5.43;;;4.18;;
47455;SDS011;33202;48.512;-2.780;2023-06-22T10:10:24;6.43;;;4.50;;
47455;SDS011;33202;48.512;-2.780;2023-06-22T10:12:57;6.65;;;4.97;;
47455;SDS011;33202;48.512;-2.780;2023-06-22T10:15:23;5.78;;;4.57;;
47455;SDS011;33202;48.512;-2.780;2023-06-22T10:17:49;6.88;;;4.63;;
47455;SDS011;33202;48.512;-2.780;2023-06-22T10:20:15;5.70;;;4.00;;
47455;SDS011;33202;48.512;-2.780;2023-06-22T10:22:44;6.72;;;4.75;;
47455;SDS011;33202;48.512;-2.780;2023-06-22T10:25:10;5.63;;;4.78;;
47455;SDS011;33202;48.512;-2.780;2023-06-22T10:27:37;6.68;;;4.97;;
47455;SDS011;33202;48.512;-2.780;2023-06-22T10:30:09;8.25;;;5.32;;
47455;SDS011;33202;48.512;-2.780;2023-06-22T10:32:35;7.80;;;4.85;;
47455;SDS011;33202;48.512;-2.780;2023-06-22T10:35:01;6.07;;;4.75;;
47455;SDS011;33202;48.512;-2.780;2023-06-22T10:37:28;7.77;;;4.73;;
47455;SDS011;33202;48.512;-2.780;2023-06-22T10:39:54;7.85;;;5.25;;
47455;SDS011;33202;48.512;-2.780;2023-06-22T10:42:20;7.47;;;4.80;;
47455;SDS011;33202;48.512;-2.780;2023-06-22T10:44:46;7.28;;;5.00;;
47455;SDS011;33202;48.512;-2.780;2023-06-22T10:47:12;5.82;;;4.88;;
47455;SDS011;33202;48.512;-2.780;2023-06-22T10:49:38;6.47;;;4.68;;
47455;SDS011;33202;48.512;-2.780;2023-06-22T10:52:07;7.80;;;4.50;;
47455;SDS011;33202;48.512;-2.780;2023-06-22T10:54:34;6.90;;;5.05;;
47455;SDS011;33202;48.512;-2.780;2023-06-22T10:57:00;7.82;;;5.00;;
47455;SDS011;33202;48.512;-2.780;2023-06-22T10:59:26;8.37;;;5.00;;
47455;SDS011;33202;48.512;-2.780;2023-06-22T11:04:19;7.13;;;4.85;;
47455;SDS011;33202;48.512;-2.780;2023-06-22T11:06:45;7.65;;;5.18;;
47455;SDS011;33202;48.512;-2.780;2023-06-22T11:09:11;6.13;;;4.60;;
47455;SDS011;33202;48.512;-2.780;2023-06-22T11:11:37;7.50;;;4.93;;
47455;SDS011;33202;48.512;-2.780;2023-06-22T11:14:03;5.70;;;4.50;;
47455;SDS011;33202;48.512;-2.780;2023-06-22T11:16:29;6.45;;;4.32;;
47455;SDS011;33202;48.512;-2.780;2023-06-22T11:18:55;7.40;;;4.57;;
47455;SDS011;33202;48.512;-2.780;2023-06-22T11:21:21;7.70;;;4.75;;
47455;SDS011;33202;48.512;-2.780;2023-06-22T11:23:47;7.45;;;4.75;;
47455;SDS011;33202;48.512;-2.780;2023-06-22T11:26:13;7.15;;;4.72;;
47455;SDS011;33202;48.512;-2.780;2023-06-22T11:28:39;5.93;;;4.35;;
47455;SDS011;33202;48.512;-2.780;2023-06-22T11:31:05;6.07;;;4.68;;
47455;SDS011;33202;48.512;-2.780;2023-06-22T11:33:32;7.30;;;4.75;;
47455;SDS011;33202;48.512;-2.780;2023-06-22T11:35:58;6.10;;;3.92;;
47455;SDS011;33202;48.512;-2.780;2023-06-22T11:38:25;5.82;;;4.03;;
47455;SDS011;33202;48.512;-2.780;2023-06-22T11:40:51;6.78;;;4.03;;
47455;SDS011;33202;48.512;-2.780;2023-06-22T11:43:17;5.43;;;4.50;;
47455;SDS011;33202;48.512;-2.780;2023-06-22T11:45:43;6.40;;;4.50;;
47455;SDS011;33202;48.512;-2.780;2023-06-22T11:48:09;5.80;;;4.45;;
47455;SDS011;33202;48.512;-2.780;2023-06-22T11:50:35;7.87;;;4.37;;
47455;SDS011;33202;48.512;-2.780;2023-06-22T11:53:04;8.77;;;4.65;;
47455;SDS011;33202;48.512;-2.780;2023-06-22T11:55:30;6.32;;;4.30;;
47455;SDS011;33202;48.512;-2.780;2023-06-22T11:57:56;8.23;;;4.80;;
47455;SDS011;33202;48.512;-2.780;2023-06-22T12:00:25;5.15;;;4.28;;
47455;SDS011;33202;48.512;-2.780;2023-06-22T12:02:51;7.40;;;4.50;;
47455;SDS011;33202;48.512;-2.780;2023-06-22T12:05:18;6.53;;;4.50;;
47455;SDS011;33202;48.512;-2.780;2023-06-22T12:07:46;6.82;;;4.85;;
47455;SDS011;33202;48.512;-2.780;2023-06-22T12:10:12;9.35;;;4.78;;
47455;SDS011;33202;48.512;-2.780;2023-06-22T12:12:38;7.25;;;4.40;;
47455;SDS011;33202;48.512;-2.780;2023-06-22T12:15:04;12.02;;;5.10;;
47455;SDS011;33202;48.512;-2.780;2023-06-22T12:17:30;6.88;;;4.40;;
47455;SDS011;33202;48.512;-2.780;2023-06-22T12:19:57;7.15;;;4.75;;
47455;SDS011;33202;48.512;-2.780;2023-06-22T12:22:23;7.97;;;4.13;;
47455;SDS011;33202;48.512;-2.780;2023-06-22T12:24:48;6.93;;;4.35;;
47455;SDS011;33202;48.512;-2.780;2023-06-22T12:27:15;6.18;;;4.20;;
47455;SDS011;33202;48.512;-2.780;2023-06-22T12:29:47;9.45;;;4.75;;
47455;SDS011;33202;48.512;-2.780;2023-06-22T12:32:13;5.22;;;3.97;;
47455;SDS011;33202;48.512;-2.780;2023-06-22T12:34:39;9.30;;;4.83;;
47455;SDS011;33202;48.512;-2.780;2023-06-22T12:37:05;4.82;;;3.70;;
47455;SDS011;33202;48.512;-2.780;2023-06-22T12:39:32;5.68;;;3.67;;
47455;SDS011;33202;48.512;-2.780;2023-06-22T12:41:58;7.30;;;4.10;;
47455;SDS011;33202;48.512;-2.780;2023-06-22T12:44:24;6.25;;;3.67;;
47455;SDS011;33202;48.512;-2.780;2023-06-22T12:46:50;5.57;;;3.95;;
47455;SDS011;33202;48.512;-2.780;2023-06-22T12:49:16;7.22;;;3.83;;
47455;SDS011;33202;48.512;-2.780;2023-06-22T12:51:42;5.68;;;3.80;;
47455;SDS011;33202;48.512;-2.780;2023-06-22T12:54:08;5.65;;;3.70;;
47455;SDS011;33202;48.512;-2.780;2023-06-22T12:56:34;4.60;;;3.40;;
47455;SDS011;33202;48.512;-2.780;2023-06-22T12:59:00;6.95;;;3.50;;
47455;SDS011;33202;48.512;-2.780;2023-06-22T13:01:27;5.07;;;3.40;;
47455;SDS011;33202;48.512;-2.780;2023-06-22T13:03:53;7.10;;;3.75;;
47455;SDS011;33202;48.512;-2.780;2023-06-22T13:06:19;5.57;;;3.23;;
47455;SDS011;33202;48.512;-2.780;2023-06-22T13:08:45;5.85;;;3.22;;
47455;SDS011;33202;48.512;-2.780;2023-06-22T13:11:11;5.95;;;3.65;;
47455;SDS011;33202;48.512;-2.780;2023-06-22T13:13:38;5.30;;;3.83;;
47455;SDS011;33202;48.512;-2.780;2023-06-22T13:16:04;5.43;;;3.40;;
47455;SDS011;33202;48.512;-2.780;2023-06-22T13:18:30;6.53;;;3.87;;
47455;SDS011;33202;48.512;-2.780;2023-06-22T13:20:56;6.88;;;3.80;;
47455;SDS011;33202;48.512;-2.780;2023-06-22T13:23:23;6.15;;;3.30;;
47455;SDS011;33202;48.512;-2.780;2023-06-22T13:25:49;5.30;;;3.78;;
47455;SDS011;33202;48.512;-2.780;2023-06-22T13:28:15;5.40;;;3.63;;
47455;SDS011;33202;48.512;-2.780;2023-06-22T13:30:41;5.65;;;3.10;;
47455;SDS011;33202;48.512;-2.780;2023-06-22T13:33:08;4.73;;;3.07;;
47455;SDS011;33202;48.512;-2.780;2023-06-22T13:35:34;4.97;;;3.40;;
47455;SDS011;33202;48.512;-2.780;2023-06-22T13:38:00;4.80;;;3.22;;
47455;SDS011;33202;48.512;-2.780;2023-06-22T13:40:26;4.53;;;2.93;;
47455;SDS011;33202;48.512;-2.780;2023-06-22T13:42:52;3.95;;;2.83;;
47455;SDS011;33202;48.512;-2.780;2023-06-22T13:45:18;5.03;;;2.80;;
47455;SDS011;33202;48.512;-2.780;2023-06-22T13:47:45;3.92;;;2.83;;
47455;SDS011;33202;48.512;-2.780;2023-06-22T13:50:11;3.72;;;2.90;;
47455;SDS011;33202;48.512;-2.780;2023-06-22T13:52:38;5.28;;;3.10;;
47455;SDS011;33202;48.512;-2.780;2023-06-22T13:55:04;3.27;;;2.77;;
47455;SDS011;33202;48.512;-2.780;2023-06-22T13:57:30;5.00;;;3.40;;
47455;SDS011;33202;48.512;-2.780;2023-06-22T13:59:56;6.22;;;3.28;;
47455;SDS011;33202;48.512;-2.780;2023-06-22T14:02:22;4.55;;;2.60;;
47455;SDS011;33202;48.512;-2.780;2023-06-22T14:04:48;6.20;;;2.88;;
47455;SDS011;33202;48.512;-2.780;2023-06-22T14:07:14;5.85;;;3.05;;
47455;SDS011;33202;48.512;-2.780;2023-06-22T14:09:40;4.43;;;3.10;;
47455;SDS011;33202;48.512;-2.780;2023-06-22T14:12:07;5.55;;;3.28;;
47455;SDS011;33202;48.512;-2.780;2023-06-22T14:14:33;3.97;;;3.03;;
47455;SDS011;33202;48.512;-2.780;2023-06-22T14:16:59;5.03;;;3.22;;
47455;SDS011;33202;48.512;-2.780;2023-06-22T14:19:25;6.32;;;3.00;;
47455;SDS011;33202;48.512;-2.780;2023-06-22T14:21:51;4.63;;;2.78;;
47455;SDS011;33202;48.512;-2.780;2023-06-22T14:24:17;4.10;;;2.78;;
47455;SDS011;33202;48.512;-2.780;2023-06-22T14:26:43;3.72;;;2.95;;
47455;SDS011;33202;48.512;-2.780;2023-06-22T14:29:09;5.00;;;3.00;;
47455;SDS011;33202;48.512;-2.780;2023-06-22T14:31:35;4.47;;;3.30;;
47455;SDS011;33202;48.512;-2.780;2023-06-22T14:34:01;7.47;;;3.28;;
47455;SDS011;33202;48.512;-2.780;2023-06-22T14:38:54;3.58;;;2.63;;
47455;SDS011;33202;48.512;-2.780;2023-06-22T14:41:20;4.15;;;2.67;;
47455;SDS011;33202;48.512;-2.780;2023-06-22T14:43:46;7.33;;;3.10;;
47455;SDS011;33202;48.512;-2.780;2023-06-22T14:46:14;5.15;;;3.17;;